sensor_id;sensor_type;location;lat;lon;timestamp;pressure;altitude;pressure_sealevel;temperature;humidity
64298;BME280;50639;53.270;7.956;2023-04-01T00:00:16;99328.81;;;10.86;83.66
64298;BME280;50639;53.270;7.956;2023-04-01T00:02:42;99338.66;;;10.86;83.54
64298;BME280;50639;53.270;7.956;2023-04-01T00:05:08;99329.25;;;10.83;83.22
64298;BME280;50639;53.270;7.956;2023-04-01T00:07:36;99329.41;;;10.88;83.30
64298;BME280;50639;53.270;7.956;2023-04-01T00:10:03;99335.06;;;10.92;83.25
64298;BME280;50639;53.270;7.956;2023-04-01T00:12:29;99330.44;;;10.87;83.38
64298;BME280;50639;53.270;7.956;2023-04-01T00:14:55;99330.44;;;10.87;83.63
64298;BME280;50639;53.270;7.956;2023-04-01T00:17:21;99330.00;;;10.90;83.17
64298;BME280;50639;53.270;7.956;2023-04-01T00:19:46;99333.44;;;10.91;82.97
64298;BME280;50639;53.270;7.956;2023-04-01T00:22:12;99329.41;;;10.88;83.02
64298;BME280;50639;53.270;7.956;2023-04-01T00:24:38;99328.56;;;10.88;83.33
64298;BME280;50639;53.270;7.956;2023-04-01T00:27:04;99334.97;;;10.87;83.57
64298;BME280;50639;53.270;7.956;2023-04-01T00:29:30;99326.50;;;10.90;83.43
64298;BME280;50639;53.270;7.956;2023-04-01T00:31:58;99333.09;;;10.87;82.90
64298;BME280;50639;53.270;7.956;2023-04-01T00:34:23;99334.75;;;10.88;83.21
64298;BME280;50639;53.270;7.956;2023-04-01T00:36:50;99327.75;;;10.87;83.70
64298;BME280;50639;53.270;7.956;2023-04-01T00:39:16;99334.63;;;10.95;82.80
64298;BME280;50639;53.270;7.956;2023-04-01T00:41:42;99334.63;;;10.95;82.60
64298;BME280;50639;53.270;7.956;2023-04-01T00:46:45;99335.22;;;10.97;82.93
64298;BME280;50639;53.270;7.956;2023-04-01T00:49:10;99322.78;;;11.03;83.09
64298;BME280;50639;53.270;7.956;2023-04-01T00:51:38;99327.69;;;11.06;82.43
64298;BME280;50639;53.270;7.956;2023-04-01T00:54:07;99325.13;;;10.99;83.09
64298;BME280;50639;53.270;7.956;2023-04-01T00:56:36;99332.06;;;10.88;83.42
64298;BME280;50639;53.270;7.956;2023-04-01T00:59:14;99316.97;;;10.94;82.90
64298;BME280;50639;53.270;7.956;2023-04-01T01:01:41;99329.88;;;10.97;83.04
64298;BME280;50639;53.270;7.956;2023-04-01T01:04:07;99326.13;;;10.86;83.36
64298;BME280;50639;53.270;7.956;2023-04-01T01:06:47;99331.97;;;10.95;83.22
64298;BME280;50639;53.270;7.956;2023-04-01T01:09:35;99332.16;;;10.82;83.50
64298;BME280;50639;53.270;7.956;2023-04-01T01:12:21;99332.66;;;10.90;83.63
64298;BME280;50639;53.270;7.956;2023-04-01T01:14:55;99328.09;;;10.91;83.37
64298;BME280;50639;53.270;7.956;2023-04-01T01:31:23;99327.44;;;10.96;83.22
64298;BME280;50639;53.270;7.956;2023-04-01T01:36:38;99334.41;;;10.97;83.41
64298;BME280;50639;53.270;7.956;2023-04-01T01:39:08;99323.13;;;10.94;83.06
64298;BME280;50639;53.270;7.956;2023-04-01T01:41:38;99330.91;;;10.96;83.73
64298;BME280;50639;53.270;7.956;2023-04-01T01:44:08;99332.31;;;10.99;83.33
64298;BME280;50639;53.270;7.956;2023-04-01T01:46:36;99328.34;;;11.01;83.05
64298;BME280;50639;53.270;7.956;2023-04-01T01:49:04;99333.25;;;11.04;82.80
64298;BME280;50639;53.270;7.956;2023-04-01T01:51:31;99341.59;;;10.96;83.63
64298;BME280;50639;53.270;7.956;2023-04-01T01:53:59;99336.84;;;10.98;83.57
64298;BME280;50639;53.270;7.956;2023-04-01T01:56:28;99331.16;;;10.94;83.66
64298;BME280;50639;53.270;7.956;2023-04-01T01:58:59;99329.88;;;10.97;83.33
64298;BME280;50639;53.270;7.956;2023-04-01T02:01:29;99336.03;;;10.98;83.35
64298;BME280;50639;53.270;7.956;2023-04-01T02:04:02;99338.94;;;10.96;83.22
64298;BME280;50639;53.270;7.956;2023-04-01T02:06:30;99342.41;;;10.97;83.04
64298;BME280;50639;53.270;7.956;2023-04-01T02:09:00;99352.28;;;10.96;83.40
64298;BME280;50639;53.270;7.956;2023-04-01T02:14:08;99340.91;;;11.01;83.52
64298;BME280;50639;53.270;7.956;2023-04-01T02:19:08;99351.38;;;11.02;83.25
64298;BME280;50639;53.270;7.956;2023-04-01T02:21:36;99356.50;;;11.04;82.89
64298;BME280;50639;53.270;7.956;2023-04-01T02:24:06;99355.66;;;11.03;83.09
64298;BME280;50639;53.270;7.956;2023-04-01T02:26:34;99360.78;;;11.05;82.56
64298;BME280;50639;53.270;7.956;2023-04-01T02:29:00;99351.97;;;11.04;82.54
64298;BME280;50639;53.270;7.956;2023-04-01T02:31:27;99361.59;;;11.05;82.87
64298;BME280;50639;53.270;7.956;2023-04-01T02:33:54;99351.97;;;11.04;83.08
64298;BME280;50639;53.270;7.956;2023-04-01T02:36:20;99357.19;;;10.99;83.08
64298;BME280;50639;53.270;7.956;2023-04-01T02:38:46;99354.16;;;10.96;83.77
64298;BME280;50639;53.270;7.956;2023-04-01T02:41:13;99352.28;;;10.96;83.07
64298;BME280;50639;53.270;7.956;2023-04-01T02:43:38;99355.31;;;11.00;82.59
64298;BME280;50639;53.270;7.956;2023-04-01T02:46:06;99365.06;;;10.94;83.00
64298;BME280;50639;53.270;7.956;2023-04-01T02:48:31;99361.00;;;11.03;82.89
64298;BME280;50639;53.270;7.956;2023-04-01T02:50:57;99362.16;;;10.96;83.52
64298;BME280;50639;53.270;7.956;2023-04-01T02:53:23;99359.59;;;11.01;83.31
64298;BME280;50639;53.270;7.956;2023-04-01T02:55:48;99359.38;;;11.02;83.41
64298;BME280;50639;53.270;7.956;2023-04-01T02:58:16;99370.28;;;11.01;82.65
64298;BME280;50639;53.270;7.956;2023-04-01T03:00:42;99369.38;;;10.95;82.88
64298;BME280;50639;53.270;7.956;2023-04-01T03:03:08;99371.81;;;10.97;82.87
64298;BME280;50639;53.270;7.956;2023-04-01T03:05:33;99374.34;;;10.91;82.40
64298;BME280;50639;53.270;7.956;2023-04-01T03:07:59;99370.81;;;10.79;83.44
64298;BME280;50639;53.270;7.956;2023-04-01T03:10:24;99374.09;;;10.81;83.39
64298;BME280;50639;53.270;7.956;2023-04-01T03:12:50;99374.44;;;10.85;83.03
64298;BME280;50639;53.270;7.956;2023-04-01T03:15:16;99380.91;;;10.77;83.86
64298;BME280;50639;53.270;7.956;2023-04-01T03:17:42;99377.66;;;10.75;83.72
64298;BME280;50639;53.270;7.956;2023-04-01T03:20:09;99377.31;;;10.83;83.18
64298;BME280;50639;53.270;7.956;2023-04-01T03:22:36;99379.56;;;10.86;83.23
64298;BME280;50639;53.270;7.956;2023-04-01T03:25:03;99386.75;;;10.86;83.41
64298;BME280;50639;53.270;7.956;2023-04-01T03:27:29;99381.63;;;10.84;83.37
64298;BME280;50639;53.270;7.956;2023-04-01T03:29:55;99390.25;;;10.86;83.51
64298;BME280;50639;53.270;7.956;2023-04-01T03:32:20;99390.03;;;10.88;83.18
64298;BME280;50639;53.270;7.956;2023-04-01T03:34:46;99392.22;;;10.91;83.47
64298;BME280;50639;53.270;7.956;2023-04-01T03:37:11;99394.09;;;10.90;83.15
64298;BME280;50639;53.270;7.956;2023-04-01T03:39:37;99391.88;;;10.87;83.51
64298;BME280;50639;53.270;7.956;2023-04-01T03:42:02;99395.38;;;10.88;83.46
64298;BME280;50639;53.270;7.956;2023-04-01T03:44:31;99395.38;;;10.88;83.10
64298;BME280;50639;53.270;7.956;2023-04-01T03:46:57;99392.78;;;10.81;83.65
64298;BME280;50639;53.270;7.956;2023-04-01T03:49:23;99398.84;;;10.88;83.23
64298;BME280;50639;53.270;7.956;2023-04-01T03:51:48;99393.72;;;10.87;82.72
64298;BME280;50639;53.270;7.956;2023-04-01T03:54:14;99394.66;;;10.81;83.35
64298;BME280;50639;53.270;7.956;2023-04-01T03:56:40;99404.34;;;10.75;82.71
64298;BME280;50639;53.270;7.956;2023-04-01T03:59:06;99405.41;;;10.74;83.75
64298;BME280;50639;53.270;7.956;2023-04-01T04:01:33;99402.69;;;10.63;83.21
64298;BME280;50639;53.270;7.956;2023-04-01T04:03:58;99400.59;;;10.65;83.19
64298;BME280;50639;53.270;7.956;2023-04-01T04:06:25;99410.84;;;10.68;83.19
64298;BME280;50639;53.270;7.956;2023-04-01T04:08:51;99404.31;;;10.64;82.96
64298;BME280;50639;53.270;7.956;2023-04-01T04:11:18;99411.16;;;10.60;83.31
64298;BME280;50639;53.270;7.956;2023-04-01T04:13:44;99413.09;;;10.52;83.78
64298;BME280;50639;53.270;7.956;2023-04-01T04:16:10;99414.56;;;10.48;83.73
64298;BME280;50639;53.270;7.956;2023-04-01T04:18:40;99422.34;;;10.50;83.63
64298;BME280;50639;53.270;7.956;2023-04-01T04:21:05;99414.00;;;10.46;83.41
64298;BME280;50639;53.270;7.956;2023-04-01T04:23:32;99418.94;;;10.43;84.35
64298;BME280;50639;53.270;7.956;2023-04-01T04:26:00;99422.66;;;10.42;83.97
64298;BME280;50639;53.270;7.956;2023-04-01T04:28:28;99427.56;;;10.45;84.00
64298;BME280;50639;53.270;7.956;2023-04-01T04:30:55;99429.19;;;10.46;83.65
64298;BME280;50639;53.270;7.956;2023-04-01T04:33:22;99429.09;;;10.52;84.42
64298;BME280;50639;53.270;7.956;2023-04-01T04:35:48;99429.94;;;10.53;83.44
64298;BME280;50639;53.270;7.956;2023-04-01T04:38:15;99435.03;;;10.54;84.38
64298;BME280;50639;53.270;7.956;2023-04-01T04:40:41;99432.50;;;10.60;83.37
64298;BME280;50639;53.270;7.956;2023-04-01T04:43:11;99445.63;;;10.61;83.83
64298;BME280;50639;53.270;7.956;2023-04-01T04:45:37;99442.75;;;10.63;83.58
64298;BME280;50639;53.270;7.956;2023-04-01T04:48:02;99443.56;;;10.63;83.57
64298;BME280;50639;53.270;7.956;2023-04-01T04:50:28;99457.25;;;10.67;83.95
64298;BME280;50639;53.270;7.956;2023-04-01T04:52:54;99455.63;;;10.66;83.69
64298;BME280;50639;53.270;7.956;2023-04-01T04:55:21;99459.94;;;10.67;83.31
64298;BME280;50639;53.270;7.956;2023-04-01T04:57:52;99462.47;;;10.62;83.72
64298;BME280;50639;53.270;7.956;2023-04-01T05:00:18;99456.09;;;10.63;83.14
64298;BME280;50639;53.270;7.956;2023-04-01T05:02:59;99460.31;;;10.70;83.76
64298;BME280;50639;53.270;7.956;2023-04-01T05:05:25;99459.13;;;10.66;83.56
64298;BME280;50639;53.270;7.956;2023-04-01T05:07:50;99460.31;;;10.70;83.44
64298;BME280;50639;53.270;7.956;2023-04-01T05:10:16;99466.91;;;10.68;83.36
64298;BME280;50639;53.270;7.956;2023-04-01T05:12:42;99477.75;;;10.73;83.00
64298;BME280;50639;53.270;7.956;2023-04-01T05:15:09;99466.69;;;10.69;83.12
64298;BME280;50639;53.270;7.956;2023-04-01T05:17:36;99467.28;;;10.71;83.32
64298;BME280;50639;53.270;7.956;2023-04-01T05:20:03;99480.25;;;10.68;83.37
64298;BME280;50639;53.270;7.956;2023-04-01T05:22:29;99478.63;;;10.67;83.81
64298;BME280;50639;53.270;7.956;2023-04-01T05:24:54;99479.22;;;10.69;83.02
64298;BME280;50639;53.270;7.956;2023-04-01T05:27:20;99478.19;;;10.70;83.57
64298;BME280;50639;53.270;7.956;2023-04-01T05:29:46;99481.91;;;10.69;83.52
64298;BME280;50639;53.270;7.956;2023-04-01T05:32:30;99482.13;;;10.67;83.16
64298;BME280;50639;53.270;7.956;2023-04-01T05:34:56;99481.09;;;10.68;83.25
64298;BME280;50639;53.270;7.956;2023-04-01T05:37:21;99489.47;;;10.72;83.22
64298;BME280;50639;53.270;7.956;2023-04-01T05:39:48;99492.50;;;10.75;83.79
64298;BME280;50639;53.270;7.956;2023-04-01T05:42:13;99487.97;;;10.76;83.14
64298;BME280;50639;53.270;7.956;2023-04-01T05:44:41;99497.84;;;10.75;83.16
64298;BME280;50639;53.270;7.956;2023-04-01T05:47:06;99491.91;;;10.73;83.42
64298;BME280;50639;53.270;7.956;2023-04-01T05:49:33;99499.13;;;10.73;83.82
64298;BME280;50639;53.270;7.956;2023-04-01T05:51:59;99501.72;;;10.79;83.33
64298;BME280;50639;53.270;7.956;2023-04-01T05:54:25;99503.91;;;10.82;83.71
64298;BME280;50639;53.270;7.956;2023-04-01T05:56:51;99506.31;;;10.90;83.12
64298;BME280;50639;53.270;7.956;2023-04-01T05:59:18;99506.16;;;10.85;83.26
64298;BME280;50639;53.270;7.956;2023-04-01T06:01:44;99522.25;;;10.79;83.43
64298;BME280;50639;53.270;7.956;2023-04-01T06:04:14;99511.69;;;10.84;83.28
64298;BME280;50639;53.270;7.956;2023-04-01T06:06:41;99525.44;;;10.87;83.17
64298;BME280;50639;53.270;7.956;2023-04-01T06:09:22;99513.94;;;10.87;83.08
64298;BME280;50639;53.270;7.956;2023-04-01T06:25:26;99540.94;;;10.97;83.33
64298;BME280;50639;53.270;7.956;2023-04-01T06:31:07;99540.72;;;10.99;82.87
64298;BME280;50639;53.270;7.956;2023-04-01T06:36:36;99552.22;;;10.99;83.04
64298;BME280;50639;53.270;7.956;2023-04-01T06:42:23;99557.09;;;11.20;82.82
64298;BME280;50639;53.270;7.956;2023-04-01T06:54:11;99567.03;;;11.31;82.03
64298;BME280;50639;53.270;7.956;2023-04-01T06:57:02;99566.56;;;11.35;82.10
64298;BME280;50639;53.270;7.956;2023-04-01T06:59:34;99573.09;;;11.39;82.27
64298;BME280;50639;53.270;7.956;2023-04-01T07:02:25;99570.25;;;11.52;81.39
64298;BME280;50639;53.270;7.956;2023-04-01T07:04:55;99576.06;;;11.49;81.21
64298;BME280;50639;53.270;7.956;2023-04-01T07:07:35;99580.47;;;11.55;81.61
64298;BME280;50639;53.270;7.956;2023-04-01T07:10:13;99581.53;;;11.54;81.64
64298;BME280;50639;53.270;7.956;2023-04-01T07:13:04;99588.41;;;11.61;81.22
64298;BME280;50639;53.270;7.956;2023-04-01T07:16:30;99596.94;;;11.70;80.88
64298;BME280;50639;53.270;7.956;2023-04-01T07:21:55;99608.41;;;11.77;80.94
64298;BME280;50639;53.270;7.956;2023-04-01T07:24:41;99613.75;;;11.77;80.81
64298;BME280;50639;53.270;7.956;2023-04-01T07:27:11;99616.84;;;11.74;80.39
64298;BME280;50639;53.270;7.956;2023-04-01T07:29:38;99624.88;;;11.74;80.85
64298;BME280;50639;53.270;7.956;2023-04-01T07:51:23;99637.97;;;12.35;78.19
64298;BME280;50639;53.270;7.956;2023-04-01T07:54:31;99644.50;;;12.39;78.57
64298;BME280;50639;53.270;7.956;2023-04-01T07:57:04;99650.09;;;12.50;78.78
64298;BME280;50639;53.270;7.956;2023-04-01T08:00:04;99650.09;;;12.50;78.76
64298;BME280;50639;53.270;7.956;2023-04-01T08:03:25;99659.97;;;12.49;77.50
64298;BME280;50639;53.270;7.956;2023-04-01T08:06:00;99670.47;;;12.39;77.31
64298;BME280;50639;53.270;7.956;2023-04-01T08:11:40;99673.16;;;12.39;77.64
64298;BME280;50639;53.270;7.956;2023-04-01T08:18:03;99681.56;;;12.54;77.15
64298;BME280;50639;53.270;7.956;2023-04-01T08:20:37;99686.31;;;12.52;77.57
64298;BME280;50639;53.270;7.956;2023-04-01T08:25:42;99691.91;;;12.51;76.90
64298;BME280;50639;53.270;7.956;2023-04-01T08:28:22;99700.50;;;12.29;77.61
64298;BME280;50639;53.270;7.956;2023-04-01T08:31:17;99708.97;;;12.26;78.22
64298;BME280;50639;53.270;7.956;2023-04-01T08:33:46;99708.09;;;12.02;76.67
64298;BME280;50639;53.270;7.956;2023-04-01T08:36:20;99716.03;;;11.73;76.07
64298;BME280;50639;53.270;7.956;2023-04-01T08:39:09;99718.22;;;11.46;77.31
64298;BME280;50639;53.270;7.956;2023-04-01T08:45:41;99725.94;;;10.92;78.80
64298;BME280;50639;53.270;7.956;2023-04-01T08:48:30;99736.84;;;10.91;78.59
64298;BME280;50639;53.270;7.956;2023-04-01T08:51:20;99743.06;;;10.85;78.55
64298;BME280;50639;53.270;7.956;2023-04-01T08:59:53;99752.84;;;10.73;79.98
64298;BME280;50639;53.270;7.956;2023-04-01T09:05:55;99765.88;;;10.63;79.25
64298;BME280;50639;53.270;7.956;2023-04-01T09:26:29;99789.25;;;10.67;78.71
64298;BME280;50639;53.270;7.956;2023-04-01T09:29:27;99792.91;;;10.73;79.12
64298;BME280;50639;53.270;7.956;2023-04-01T09:40:31;99812.41;;;10.73;78.21
64298;BME280;50639;53.270;7.956;2023-04-01T09:51:21;99836.03;;;10.76;77.41
64298;BME280;50639;53.270;7.956;2023-04-01T09:57:04;99841.88;;;10.91;77.96
64298;BME280;50639;53.270;7.956;2023-04-01T10:00:13;99852.25;;;11.06;76.99
64298;BME280;50639;53.270;7.956;2023-04-01T10:06:20;99861.25;;;11.12;76.97
64298;BME280;50639;53.270;7.956;2023-04-01T10:14:56;99869.56;;;11.28;75.50
64298;BME280;50639;53.270;7.956;2023-04-01T10:18:18;99876.94;;;11.02;76.10
64298;BME280;50639;53.270;7.956;2023-04-01T10:23:31;99885.63;;;10.97;76.57
64298;BME280;50639;53.270;7.956;2023-04-01T10:32:40;99894.69;;;10.96;77.40
64298;BME280;50639;53.270;7.956;2023-04-01T10:46:56;99908.19;;;11.32;74.51
64298;BME280;50639;53.270;7.956;2023-04-01T10:49:47;99917.47;;;10.99;75.53
64298;BME280;50639;53.270;7.956;2023-04-01T11:27:59;99979.94;;;10.53;75.14
64298;BME280;50639;53.270;7.956;2023-04-01T11:33:23;99989.38;;;10.55;74.77
64298;BME280;50639;53.270;7.956;2023-04-01T11:36:10;99995.53;;;10.63;75.38
64298;BME280;50639;53.270;7.956;2023-04-01T11:45:19;100006.28;;;10.43;74.95
64298;BME280;50639;53.270;7.956;2023-04-01T11:48:31;100016.53;;;10.46;75.78
64298;BME280;50639;53.270;7.956;2023-04-01T11:56:59;100036.22;;;10.51;74.58
64298;BME280;50639;53.270;7.956;2023-04-01T12:04:58;100054.25;;;10.69;75.23
64298;BME280;50639;53.270;7.956;2023-04-01T12:10:57;100057.94;;;10.81;73.41
64298;BME280;50639;53.270;7.956;2023-04-01T12:22:10;100072.97;;;10.69;73.98
64298;BME280;50639;53.270;7.956;2023-04-01T12:25:04;100091.44;;;10.77;73.96
64298;BME280;50639;53.270;7.956;2023-04-01T12:27:41;100087.91;;;10.83;73.26
64298;BME280;50639;53.270;7.956;2023-04-01T12:30:20;100097.19;;;10.81;73.10
64298;BME280;50639;53.270;7.956;2023-04-01T12:33:01;100096.53;;;10.92;73.79
64298;BME280;50639;53.270;7.956;2023-04-01T12:36:00;100104.16;;;10.82;74.54
64298;BME280;50639;53.270;7.956;2023-04-01T12:41:18;100113.00;;;10.76;73.88
64298;BME280;50639;53.270;7.956;2023-04-01T12:43:59;100122.44;;;10.85;73.57
64298;BME280;50639;53.270;7.956;2023-04-01T12:47:23;100117.50;;;10.82;72.94
64298;BME280;50639;53.270;7.956;2023-04-01T12:49:54;100127.78;;;10.85;73.72
64298;BME280;50639;53.270;7.956;2023-04-01T12:58:40;100134.75;;;10.99;72.58
64298;BME280;50639;53.270;7.956;2023-04-01T13:06:18;100152.03;;;10.97;73.13
64298;BME280;50639;53.270;7.956;2023-04-01T13:15:05;100167.66;;;10.67;74.16
64298;BME280;50639;53.270;7.956;2023-04-01T13:17:52;100168.06;;;10.77;72.16
64298;BME280;50639;53.270;7.956;2023-04-01T13:23:18;100178.38;;;10.53;73.28
64298;BME280;50639;53.270;7.956;2023-04-01T13:25:58;100185.75;;;10.58;72.99
64298;BME280;50639;53.270;7.956;2023-04-01T13:28:53;100191.53;;;10.55;72.46
64298;BME280;50639;53.270;7.956;2023-04-01T13:34:31;100194.59;;;10.72;73.88
64298;BME280;50639;53.270;7.956;2023-04-01T13:37:15;100204.03;;;10.94;72.95
64298;BME280;50639;53.270;7.956;2023-04-01T13:42:57;100205.69;;;10.88;71.56
64298;BME280;50639;53.270;7.956;2023-04-01T13:45:33;100219.03;;;10.82;71.33
64298;BME280;50639;53.270;7.956;2023-04-01T14:02:20;100244.91;;;10.35;72.91
64298;BME280;50639;53.270;7.956;2023-04-01T14:05:14;100255.59;;;10.35;73.06
64298;BME280;50639;53.270;7.956;2023-04-01T14:07:49;100246.94;;;10.33;73.29
64298;BME280;50639;53.270;7.956;2023-04-01T14:13:43;100258.78;;;10.11;71.93
64298;BME280;50639;53.270;7.956;2023-04-01T14:19:08;100262.03;;;10.06;73.22
64298;BME280;50639;53.270;7.956;2023-04-01T14:24:29;100292.84;;;10.09;73.68
64298;BME280;50639;53.270;7.956;2023-04-01T14:27:10;100299.84;;;10.10;73.06
64298;BME280;50639;53.270;7.956;2023-04-01T14:32:51;100307.94;;;9.89;72.63
64298;BME280;50639;53.270;7.956;2023-04-01T14:35:33;100291.31;;;9.87;71.83
64298;BME280;50639;53.270;7.956;2023-04-01T14:40:55;100314.25;;;9.74;73.58
64298;BME280;50639;53.270;7.956;2023-04-01T14:46:30;100328.31;;;9.62;74.63
64298;BME280;50639;53.270;7.956;2023-04-01T14:51:44;100335.63;;;9.47;74.45
64298;BME280;50639;53.270;7.956;2023-04-01T14:56:44;100342.63;;;9.26;74.33
64298;BME280;50639;53.270;7.956;2023-04-01T15:02:12;100354.41;;;9.11;74.69
64298;BME280;50639;53.270;7.956;2023-04-01T15:16:23;100387.72;;;9.00;75.91
64298;BME280;50639;53.270;7.956;2023-04-01T15:21:37;100398.56;;;8.77;76.13
64298;BME280;50639;53.270;7.956;2023-04-01T15:24:24;100398.56;;;8.77;76.64
64298;BME280;50639;53.270;7.956;2023-04-01T15:37:49;100433.50;;;8.53;75.60
64298;BME280;50639;53.270;7.956;2023-04-01T15:40:47;100440.47;;;8.54;76.47
64298;BME280;50639;53.270;7.956;2023-04-01T15:43:45;100451.75;;;8.56;75.64
64298;BME280;50639;53.270;7.956;2023-04-01T15:46:47;100465.25;;;8.69;75.85
64298;BME280;50639;53.270;7.956;2023-04-01T15:49:42;100465.78;;;8.64;75.40
64298;BME280;50639;53.270;7.956;2023-04-01T15:55:17;100475.47;;;8.51;76.05
64298;BME280;50639;53.270;7.956;2023-04-01T15:57:48;100476.81;;;8.47;76.47
64298;BME280;50639;53.270;7.956;2023-04-01T16:03:15;100486.66;;;8.46;75.75
64298;BME280;50639;53.270;7.956;2023-04-01T16:14:06;100515.94;;;8.32;75.06
64298;BME280;50639;53.270;7.956;2023-04-01T16:17:12;100518.56;;;8.17;76.32
64298;BME280;50639;53.270;7.956;2023-04-01T16:22:31;100528.66;;;8.21;76.43
64298;BME280;50639;53.270;7.956;2023-04-01T16:30:55;100537.31;;;8.01;76.42
64298;BME280;50639;53.270;7.956;2023-04-01T16:33:32;100551.00;;;7.98;76.62
64298;BME280;50639;53.270;7.956;2023-04-01T16:36:10;100558.03;;;7.90;76.97
64298;BME280;50639;53.270;7.956;2023-04-01T16:38:50;100559.50;;;7.93;76.99
64298;BME280;50639;53.270;7.956;2023-04-01T16:41:46;100569.13;;;7.94;76.55
64298;BME280;50639;53.270;7.956;2023-04-01T16:44:30;100576.28;;;7.93;76.20
64298;BME280;50639;53.270;7.956;2023-04-01T16:47:08;100582.31;;;7.87;76.92
64298;BME280;50639;53.270;7.956;2023-04-01T16:49:39;100587.81;;;7.86;75.38
64298;BME280;50639;53.270;7.956;2023-04-01T16:57:28;100612.34;;;7.73;77.27
64298;BME280;50639;53.270;7.956;2023-04-01T17:00:16;100620.34;;;7.73;76.51
64298;BME280;50639;53.270;7.956;2023-04-01T17:02:52;100626.72;;;7.64;75.94
64298;BME280;50639;53.270;7.956;2023-04-01T17:05:41;100626.06;;;7.62;76.37
64298;BME280;50639;53.270;7.956;2023-04-01T17:25:20;100669.66;;;7.45;76.79
64298;BME280;50639;53.270;7.956;2023-04-01T17:27:59;100672.78;;;7.48;75.92
64298;BME280;50639;53.270;7.956;2023-04-01T17:41:55;100705.31;;;7.20;77.25
64298;BME280;50639;53.270;7.956;2023-04-01T17:46:56;100713.78;;;7.15;76.80
64298;BME280;50639;53.270;7.956;2023-04-01T17:49:44;100717.75;;;7.19;76.46
64298;BME280;50639;53.270;7.956;2023-04-01T17:57:46;100746.34;;;7.09;76.76
64298;BME280;50639;53.270;7.956;2023-04-01T18:02:48;100759.47;;;7.10;75.75
64298;BME280;50639;53.270;7.956;2023-04-01T18:08:12;100779.22;;;7.00;77.78
64298;BME280;50639;53.270;7.956;2023-04-01T18:13:51;100795.81;;;7.02;76.65
64298;BME280;50639;53.270;7.956;2023-04-01T18:16:29;100796.47;;;7.04;76.04
64298;BME280;50639;53.270;7.956;2023-04-01T18:27:16;100829.00;;;6.82;76.63
64298;BME280;50639;53.270;7.956;2023-04-01T18:32:22;100843.28;;;6.72;75.74
64298;BME280;50639;53.270;7.956;2023-04-01T18:34:54;100840.31;;;6.67;76.51
64298;BME280;50639;53.270;7.956;2023-04-01T18:37:34;100851.41;;;6.63;76.60
64298;BME280;50639;53.270;7.956;2023-04-01T18:40:19;100852.91;;;6.65;77.06
64298;BME280;50639;53.270;7.956;2023-04-01T18:43:12;100857.38;;;6.57;76.43
64298;BME280;50639;53.270;7.956;2023-04-01T18:45:46;100866.00;;;6.59;76.58
64298;BME280;50639;53.270;7.956;2023-04-01T18:51:20;100876.75;;;6.49;76.86
64298;BME280;50639;53.270;7.956;2023-04-01T18:53:56;100881.09;;;6.58;76.59
64298;BME280;50639;53.270;7.956;2023-04-01T18:56:30;100870.97;;;6.62;76.33
64298;BME280;50639;53.270;7.956;2023-04-01T18:59:08;100904.78;;;6.52;76.14
64298;BME280;50639;53.270;7.956;2023-04-01T19:01:41;100905.94;;;6.49;77.02
64298;BME280;50639;53.270;7.956;2023-04-01T19:04:15;100916.53;;;6.41;75.86
64298;BME280;50639;53.270;7.956;2023-04-01T19:06:53;100917.22;;;6.51;76.16
64298;BME280;50639;53.270;7.956;2023-04-01T19:09:29;100922.84;;;6.48;76.59
64298;BME280;50639;53.270;7.956;2023-04-01T19:15:26;100941.06;;;6.43;76.54
64298;BME280;50639;53.270;7.956;2023-04-01T19:21:10;100947.66;;;6.31;77.12
64298;BME280;50639;53.270;7.956;2023-04-01T19:26:22;100970.75;;;6.38;75.54
64298;BME280;50639;53.270;7.956;2023-04-01T19:29:12;100966.41;;;6.29;75.56
64298;BME280;50639;53.270;7.956;2023-04-01T19:34:55;100981.31;;;6.30;75.78
64298;BME280;50639;53.270;7.956;2023-04-01T19:37:37;100987.09;;;6.26;75.79
64298;BME280;50639;53.270;7.956;2023-04-01T19:45:46;100999.03;;;6.22;76.31
64298;BME280;50639;53.270;7.956;2023-04-01T19:48:42;100993.97;;;6.11;76.33
64298;BME280;50639;53.270;7.956;2023-04-01T19:51:12;101006.56;;;6.09;75.87
64298;BME280;50639;53.270;7.956;2023-04-01T19:56:22;101027.13;;;6.07;76.01
64298;BME280;50639;53.270;7.956;2023-04-01T19:58:50;101023.69;;;6.14;74.64
64298;BME280;50639;53.270;7.956;2023-04-01T20:01:35;101030.06;;;6.03;74.76
64298;BME280;50639;53.270;7.956;2023-04-01T20:04:10;101040.97;;;6.00;75.41
64298;BME280;50639;53.270;7.956;2023-04-01T20:14:53;101070.13;;;6.00;74.48
64298;BME280;50639;53.270;7.956;2023-04-01T20:17:32;101061.00;;;5.95;74.85
64298;BME280;50639;53.270;7.956;2023-04-01T20:25:21;101074.03;;;5.88;73.89
64298;BME280;50639;53.270;7.956;2023-04-01T20:27:55;101094.00;;;5.83;74.84
64298;BME280;50639;53.270;7.956;2023-04-01T20:30:43;101093.84;;;5.84;74.06
64298;BME280;50639;53.270;7.956;2023-04-01T20:41:38;101112.88;;;5.80;72.77
64298;BME280;50639;53.270;7.956;2023-04-01T20:44:21;101123.63;;;5.60;72.89
64298;BME280;50639;53.270;7.956;2023-04-01T20:49:57;101132.91;;;5.64;73.13
64298;BME280;50639;53.270;7.956;2023-04-01T20:52:41;101137.84;;;5.59;72.53
64298;BME280;50639;53.270;7.956;2023-04-01T21:00:49;101141.25;;;5.52;72.54
64298;BME280;50639;53.270;7.956;2023-04-01T21:03:37;101158.13;;;5.51;72.89
64298;BME280;50639;53.270;7.956;2023-04-01T21:12:11;101175.34;;;5.37;72.27
64298;BME280;50639;53.270;7.956;2023-04-01T21:17:22;101187.22;;;5.33;71.37
64298;BME280;50639;53.270;7.956;2023-04-01T21:28:19;101210.28;;;5.23;70.89
64298;BME280;50639;53.270;7.956;2023-04-01T21:46:55;101247.97;;;5.07;71.33
64298;BME280;50639;53.270;7.956;2023-04-01T22:00:37;101268.06;;;5.00;70.40
64298;BME280;50639;53.270;7.956;2023-04-01T22:05:53;101276.56;;;4.94;71.44
64298;BME280;50639;53.270;7.956;2023-04-01T22:13:59;101294.00;;;4.77;70.52
64298;BME280;50639;53.270;7.956;2023-04-01T22:16:35;101302.06;;;4.66;70.95
64298;BME280;50639;53.270;7.956;2023-04-01T22:19:26;101306.56;;;4.56;71.29